createdAt,value
2024-04-26T00:00:06.000Z,428.7234802246094
2024-04-26T00:01:08.000Z,428.8912658691406
2024-04-26T00:02:10.000Z,429.3142395019531
2024-04-26T00:03:12.000Z,429.654052734375
2024-04-26T00:04:14.000Z,431.414306640625
2024-04-26T00:05:17.000Z,430.24359130859375
2024-04-26T00:06:19.000Z,428.2171936035156
2024-04-26T00:07:21.000Z,428.978759765625
2024-04-26T00:08:23.000Z,430.26812744140625
2024-04-26T00:09:25.000Z,429.6370849609375
2024-04-26T00:10:28.000Z,428.94854736328125
2024-04-26T00:11:30.000Z,428.584228515625
2024-04-26T00:12:32.000Z,427.80316162109375
2024-04-26T00:13:34.000Z,427.95147705078125
2024-04-26T00:14:36.000Z,427.22247314453125
2024-04-26T00:15:38.000Z,427.5234069824219
2024-04-26T00:16:40.000Z,429.4169921875
2024-04-26T00:17:43.000Z,427.962646484375
2024-04-26T00:18:45.000Z,428.40667724609375
2024-04-26T00:19:47.000Z,426.8941345214844
2024-04-26T00:20:49.000Z,424.9717712402344
2024-04-26T00:21:51.000Z,424.7891540527344
2024-04-26T00:22:53.000Z,424.4937744140625
2024-04-26T00:23:55.000Z,422.039306640625
2024-04-26T00:24:58.000Z,421.3052062988281
2024-04-26T00:26:00.000Z,422.1788330078125
2024-04-26T00:27:02.000Z,422.3659973144531
2024-04-26T00:28:04.000Z,419.87335205078125
2024-04-26T00:29:06.000Z,419.5223693847656
2024-04-26T00:30:08.000Z,420.18927001953125
2024-04-26T00:31:10.000Z,419.27825927734375
2024-04-26T00:32:13.000Z,420.5442199707031
2024-04-26T00:33:15.000Z,420.69720458984375
2024-04-26T00:34:17.000Z,421.2131652832031
2024-04-26T00:35:19.000Z,420.47052001953125
2024-04-26T00:36:21.000Z,420.67889404296875
2024-04-26T00:37:23.000Z,418.2542419433594
2024-04-26T00:38:25.000Z,417.90020751953125
2024-04-26T00:39:28.000Z,417.7197265625
2024-04-26T00:40:30.000Z,420.8365783691406
2024-04-26T00:41:32.000Z,419.76922607421875
2024-04-26T00:42:34.000Z,420.1945495605469
2024-04-26T00:43:36.000Z,420.4244384765625
2024-04-26T00:44:38.000Z,420.9158630371094
2024-04-26T00:45:41.000Z,419.51629638671875
2024-04-26T00:46:43.000Z,419.20574951171875
2024-04-26T00:47:45.000Z,419.75152587890625
2024-04-26T00:48:47.000Z,418.6114196777344
2024-04-26T00:49:49.000Z,417.58831787109375
2024-04-26T00:50:51.000Z,418.1679382324219
2024-04-26T00:51:53.000Z,417.214111328125
2024-04-26T00:52:56.000Z,415.60833740234375
2024-04-26T00:53:58.000Z,415.697998046875
2024-04-26T00:55:00.000Z,414.8422546386719
2024-04-26T00:56:02.000Z,414.23663330078125
2024-04-26T00:57:04.000Z,413.8908386230469
2024-04-26T00:58:06.000Z,411.73297119140625
2024-04-26T00:59:08.000Z,413.5509033203125
2024-04-26T01:00:11.000Z,414.50274658203125
2024-04-26T01:01:13.000Z,418.10772705078125
2024-04-26T01:02:15.000Z,419.1708679199219
2024-04-26T01:03:17.000Z,419.5148010253906
2024-04-26T01:04:19.000Z,419.11138916015625
2024-04-26T01:05:21.000Z,421.6514587402344
2024-04-26T01:06:24.000Z,421.16705322265625
2024-04-26T01:07:26.000Z,422.2129821777344
2024-04-26T01:08:28.000Z,421.44775390625
2024-04-26T01:09:30.000Z,419.9773864746094
2024-04-26T01:10:32.000Z,417.03485107421875
2024-04-26T01:11:34.000Z,420.01873779296875
2024-04-26T01:12:36.000Z,421.0887145996094
2024-04-26T01:13:39.000Z,420.5141906738281
2024-04-26T01:14:41.000Z,419.49066162109375
2024-04-26T01:15:43.000Z,418.07672119140625
2024-04-26T01:16:45.000Z,419.80364990234375
2024-04-26T01:17:47.000Z,419.85272216796875
2024-04-26T01:18:49.000Z,419.6383361816406
2024-04-26T01:19:51.000Z,418.9668884277344
2024-04-26T01:20:54.000Z,418.6280822753906
2024-04-26T01:21:56.000Z,416.000732421875
2024-04-26T01:22:58.000Z,416.1411437988281
2024-04-26T01:24:00.000Z,414.9031677246094
2024-04-26T01:25:02.000Z,412.3951721191406
2024-04-26T01:26:04.000Z,413.0381774902344
2024-04-26T01:27:06.000Z,415.2088317871094
2024-04-26T01:28:09.000Z,416.7344665527344
2024-04-26T01:29:11.000Z,415.474365234375
2024-04-26T01:30:13.000Z,415.600830078125
2024-04-26T01:31:15.000Z,415.83319091796875
2024-04-26T01:32:17.000Z,414.93621826171875
2024-04-26T01:33:19.000Z,413.8623962402344
2024-04-26T01:34:22.000Z,414.6322326660156
2024-04-26T01:35:24.000Z,414.9261474609375
2024-04-26T01:36:26.000Z,416.1922912597656
2024-04-26T01:37:28.000Z,416.8203430175781
2024-04-26T01:38:30.000Z,416.787109375
2024-04-26T01:39:32.000Z,420.1255187988281
2024-04-26T01:40:34.000Z,423.59619140625
2024-04-26T01:41:37.000Z,425.9551086425781
2024-04-26T01:42:39.000Z,424.086181640625
2024-04-26T01:43:41.000Z,422.5071716308594
2024-04-26T01:44:43.000Z,422.6617736816406
2024-04-26T01:45:45.000Z,424.30438232421875
2024-04-26T01:46:47.000Z,421.73785400390625
2024-04-26T01:47:49.000Z,419.71466064453125
2024-04-26T01:48:52.000Z,418.3354797363281
2024-04-26T01:49:54.000Z,417.83319091796875
2024-04-26T01:50:56.000Z,416.47845458984375
2024-04-26T01:51:58.000Z,416.6934509277344
2024-04-26T01:53:00.000Z,418.5585632324219
2024-04-26T01:54:02.000Z,418.3653564453125
2024-04-26T01:55:04.000Z,415.91571044921875
2024-04-26T01:56:07.000Z,416.4810485839844
2024-04-26T01:57:09.000Z,415.04779052734375
2024-04-26T01:58:11.000Z,414.168701171875
2024-04-26T01:59:13.000Z,414.25390625
2024-04-26T02:00:15.000Z,413.84228515625
2024-04-26T02:01:17.000Z,413.6080322265625
2024-04-26T02:02:20.000Z,415.3667297363281
2024-04-26T02:03:22.000Z,415.7555236816406
2024-04-26T02:04:24.000Z,418.1374816894531
2024-04-26T02:05:26.000Z,419.96710205078125
2024-04-26T02:06:28.000Z,419.3553161621094
2024-04-26T02:07:30.000Z,422.0539245605469
2024-04-26T02:08:33.000Z,423.9508056640625
2024-04-26T02:09:35.000Z,425.1684875488281
2024-04-26T02:10:37.000Z,425.5985412597656
2024-04-26T02:11:39.000Z,425.4836730957031
2024-04-26T02:12:41.000Z,425.5709533691406
2024-04-26T02:13:43.000Z,425.62432861328125
2024-04-26T02:14:45.000Z,425.7915954589844
2024-04-26T02:15:48.000Z,424.0504150390625
2024-04-26T02:16:50.000Z,422.2379455566406
2024-04-26T02:17:52.000Z,420.52117919921875
2024-04-26T02:18:54.000Z,419.2362060546875
2024-04-26T02:19:56.000Z,418.9395446777344
2024-04-26T02:20:58.000Z,422.1261901855469
2024-04-26T02:22:00.000Z,423.28271484375
2024-04-26T02:23:03.000Z,425.357666015625
2024-04-26T02:24:05.000Z,425.6719055175781
2024-04-26T02:25:07.000Z,427.819091796875
2024-04-26T02:26:09.000Z,428.8373107910156
2024-04-26T02:27:11.000Z,429.9981689453125
2024-04-26T02:28:13.000Z,431.8783264160156
2024-04-26T02:29:16.000Z,429.4922180175781
2024-04-26T02:30:18.000Z,428.2530212402344
2024-04-26T02:31:20.000Z,426.3135070800781
2024-04-26T02:32:22.000Z,428.56561279296875
2024-04-26T02:33:24.000Z,427.8905944824219
2024-04-26T02:34:26.000Z,423.78363037109375
2024-04-26T02:35:28.000Z,422.08111572265625
2024-04-26T02:36:31.000Z,422.6390686035156
2024-04-26T02:37:33.000Z,422.5122375488281
2024-04-26T02:38:35.000Z,422.2855224609375
2024-04-26T02:39:37.000Z,419.11590576171875
2024-04-26T02:40:39.000Z,417.5303039550781
2024-04-26T02:41:41.000Z,415.748046875
2024-04-26T02:42:43.000Z,415.7794494628906
2024-04-26T02:43:46.000Z,414.1923828125
2024-04-26T02:44:48.000Z,415.2720031738281
2024-04-26T02:45:50.000Z,416.4923095703125
2024-04-26T02:46:52.000Z,418.875732421875
2024-04-26T02:47:54.000Z,420.26287841796875
2024-04-26T02:48:56.000Z,421.16912841796875
2024-04-26T02:49:58.000Z,422.2040710449219
2024-04-26T02:51:01.000Z,420.7825012207031
2024-04-26T02:52:03.000Z,420.5749206542969
2024-04-26T02:53:05.000Z,420.1139831542969
2024-04-26T02:54:07.000Z,420.7277526855469
2024-04-26T02:55:09.000Z,420.5115966796875
2024-04-26T02:56:11.000Z,420.2502136230469
2024-04-26T02:57:14.000Z,420.9789123535156
2024-04-26T02:58:16.000Z,421.6286315917969
2024-04-26T02:59:18.000Z,420.6977844238281
2024-04-26T03:00:20.000Z,420.8506164550781
2024-04-26T03:01:22.000Z,424.3719177246094
2024-04-26T03:02:24.000Z,424.1339111328125
2024-04-26T03:03:27.000Z,424.2360534667969
2024-04-26T03:04:29.000Z,424.3296203613281
2024-04-26T03:05:31.000Z,423.49542236328125
2024-04-26T03:06:33.000Z,421.3631896972656
2024-04-26T03:07:35.000Z,420.2163391113281
2024-04-26T03:08:37.000Z,418.83258056640625
2024-04-26T03:09:40.000Z,418.9822082519531
2024-04-26T03:10:42.000Z,418.39892578125
2024-04-26T03:11:44.000Z,418.65301513671875
2024-04-26T03:12:46.000Z,420.59564208984375
2024-04-26T03:13:48.000Z,421.4312744140625
2024-04-26T03:14:50.000Z,423.8597412109375
2024-04-26T03:15:53.000Z,422.0833740234375
2024-04-26T03:16:55.000Z,423.14935302734375
2024-04-26T03:17:57.000Z,422.7117919921875
2024-04-26T03:18:59.000Z,424.0065612792969
2024-04-26T03:20:01.000Z,425.03741455078125
2024-04-26T03:21:03.000Z,424.7959289550781
2024-04-26T03:22:05.000Z,424.32379150390625
2024-04-26T03:23:08.000Z,424.5973205566406
2024-04-26T03:24:10.000Z,425.79315185546875
2024-04-26T03:25:12.000Z,426.5313415527344
2024-04-26T03:26:14.000Z,423.103515625
2024-04-26T03:27:16.000Z,422.46142578125
2024-04-26T03:28:18.000Z,420.2258605957031
2024-04-26T03:29:21.000Z,419.68255615234375
2024-04-26T03:30:23.000Z,420.577392578125
2024-04-26T03:31:25.000Z,420.0262451171875
2024-04-26T03:32:27.000Z,419.52911376953125
2024-04-26T03:33:29.000Z,420.083251953125
2024-04-26T03:34:31.000Z,420.769775390625
2024-04-26T03:35:33.000Z,418.8038330078125
2024-04-26T03:36:36.000Z,418.8756408691406
2024-04-26T03:37:38.000Z,421.4241943359375
2024-04-26T03:38:40.000Z,422.5273742675781
2024-04-26T03:39:42.000Z,423.5210266113281
2024-04-26T03:40:44.000Z,423.4298095703125
2024-04-26T03:41:46.000Z,423.44097900390625
2024-04-26T03:42:48.000Z,422.5322265625
2024-04-26T03:43:51.000Z,423.0103454589844
2024-04-26T03:44:53.000Z,421.4820251464844
2024-04-26T03:45:55.000Z,421.54229736328125
2024-04-26T03:46:57.000Z,421.99249267578125
2024-04-26T03:47:59.000Z,421.2093811035156
2024-04-26T03:49:01.000Z,418.454833984375
2024-04-26T03:50:03.000Z,415.6581115722656
2024-04-26T03:51:06.000Z,415.43035888671875
2024-04-26T03:52:08.000Z,416.3783264160156
2024-04-26T03:53:10.000Z,418.5014343261719
2024-04-26T03:54:12.000Z,419.33746337890625
2024-04-26T03:55:14.000Z,420.6253967285156
2024-04-26T03:56:17.000Z,422.61492919921875
2024-04-26T03:57:19.000Z,421.87677001953125
2024-04-26T03:58:21.000Z,420.14373779296875
2024-04-26T03:59:23.000Z,418.3307189941406
2024-04-26T04:00:25.000Z,419.1867370605469
2024-04-26T04:01:27.000Z,421.8696594238281
2024-04-26T04:02:29.000Z,423.62548828125
2024-04-26T04:03:32.000Z,423.1145935058594
2024-04-26T04:04:34.000Z,425.7646484375
2024-04-26T04:05:36.000Z,428.0977478027344
2024-04-26T04:06:38.000Z,430.03692626953125
2024-04-26T04:07:40.000Z,429.6601867675781
2024-04-26T04:08:42.000Z,429.0284118652344
2024-04-26T04:09:45.000Z,431.0811767578125
2024-04-26T04:10:47.000Z,430.09417724609375
2024-04-26T04:11:49.000Z,428.3857421875
2024-04-26T04:12:51.000Z,430.5275573730469
2024-04-26T04:13:53.000Z,430.535888671875
2024-04-26T04:14:55.000Z,430.2462463378906
2024-04-26T04:15:58.000Z,430.40972900390625
2024-04-26T04:17:00.000Z,430.0224304199219
2024-04-26T04:18:02.000Z,428.53009033203125
2024-04-26T04:19:04.000Z,426.82989501953125
2024-04-26T04:20:06.000Z,427.4797058105469
2024-04-26T04:21:08.000Z,426.4114074707031
2024-04-26T04:22:11.000Z,424.6502990722656
2024-04-26T04:23:13.000Z,425.3081970214844
2024-04-26T04:24:15.000Z,427.7182922363281
2024-04-26T04:25:17.000Z,427.7144470214844
2024-04-26T04:26:19.000Z,426.6863708496094
2024-04-26T04:27:21.000Z,426.22442626953125
2024-04-26T04:28:24.000Z,426.523681640625
2024-04-26T04:29:26.000Z,427.1886901855469
2024-04-26T04:30:28.000Z,428.0406494140625
2024-04-26T04:31:30.000Z,425.2073974609375
2024-04-26T04:32:32.000Z,425.2781677246094
2024-04-26T04:33:34.000Z,428.151123046875
2024-04-26T04:34:37.000Z,427.0567626953125
2024-04-26T04:35:39.000Z,427.8573303222656
2024-04-26T04:36:41.000Z,429.6780700683594
2024-04-26T04:37:43.000Z,431.2118225097656
2024-04-26T04:38:45.000Z,433.5334167480469
2024-04-26T04:39:47.000Z,430.810791015625
2024-04-26T04:40:49.000Z,431.1811828613281
2024-04-26T04:41:52.000Z,427.49835205078125
2024-04-26T04:42:54.000Z,425.2236328125
2024-04-26T04:43:56.000Z,423.8009338378906
2024-04-26T04:44:58.000Z,426.812255859375
2024-04-26T04:46:00.000Z,427.0466003417969
2024-04-26T04:47:02.000Z,425.9740905761719
2024-04-26T04:48:05.000Z,426.0045471191406
2024-04-26T04:49:07.000Z,426.623046875
2024-04-26T04:50:09.000Z,425.7662353515625
2024-04-26T04:51:11.000Z,428.14501953125
2024-04-26T04:52:13.000Z,426.70654296875
2024-04-26T04:53:15.000Z,427.1224365234375
2024-04-26T04:54:17.000Z,426.68408203125
2024-04-26T04:55:19.000Z,426.7425842285156
2024-04-26T04:56:22.000Z,426.3947448730469
2024-04-26T04:57:24.000Z,425.5331115722656
2024-04-26T04:58:26.000Z,423.456787109375
2024-04-26T04:59:28.000Z,421.7376708984375
2024-04-26T05:00:30.000Z,423.0042724609375
2024-04-26T05:01:32.000Z,426.0550842285156
2024-04-26T05:02:35.000Z,428.0547790527344
2024-04-26T05:03:37.000Z,427.3145751953125
2024-04-26T05:04:39.000Z,426.8437805175781
2024-04-26T05:05:41.000Z,425.11810302734375
2024-04-26T05:06:43.000Z,424.73406982421875
2024-04-26T05:07:45.000Z,423.5733947753906
2024-04-26T05:08:47.000Z,424.86566162109375
2024-04-26T05:09:50.000Z,423.5848388671875
2024-04-26T05:10:52.000Z,422.94012451171875
2024-04-26T05:11:54.000Z,421.75994873046875
2024-04-26T05:12:56.000Z,421.54345703125
2024-04-26T05:13:58.000Z,422.186767578125
2024-04-26T05:15:00.000Z,423.15264892578125
2024-04-26T05:16:02.000Z,425.11029052734375
2024-04-26T05:17:05.000Z,426.0242919921875
2024-04-26T05:18:07.000Z,427.2544860839844
2024-04-26T05:19:09.000Z,427.6100158691406
2024-04-26T05:20:11.000Z,425.6016845703125
2024-04-26T05:21:13.000Z,428.011962890625
2024-04-26T05:22:15.000Z,426.87078857421875
2024-04-26T05:23:17.000Z,427.2623291015625
2024-04-26T05:24:20.000Z,428.439697265625
2024-04-26T05:25:22.000Z,428.701904296875
2024-04-26T05:26:24.000Z,428.50445556640625
2024-04-26T05:27:26.000Z,428.3653564453125
2024-04-26T05:28:28.000Z,430.33636474609375
2024-04-26T05:29:30.000Z,428.1517639160156
2024-04-26T05:30:32.000Z,425.2392578125
2024-04-26T05:31:35.000Z,425.771728515625
2024-04-26T05:32:37.000Z,426.97900390625
2024-04-26T05:33:39.000Z,426.188720703125
2024-04-26T05:34:41.000Z,424.59130859375
2024-04-26T05:35:43.000Z,424.58270263671875
2024-04-26T05:36:45.000Z,422.0483093261719
2024-04-26T05:37:48.000Z,419.48870849609375
2024-04-26T05:38:50.000Z,421.5565185546875
2024-04-26T05:39:52.000Z,423.66485595703125
2024-04-26T05:40:54.000Z,420.4393615722656
2024-04-26T05:41:56.000Z,422.8808898925781
2024-04-26T05:42:58.000Z,424.3050231933594
2024-04-26T05:44:01.000Z,422.37506103515625
2024-04-26T05:45:03.000Z,421.95684814453125
2024-04-26T05:46:05.000Z,419.384765625
2024-04-26T05:47:07.000Z,417.8186340332031
2024-04-26T05:48:09.000Z,418.3519592285156
2024-04-26T05:49:11.000Z,418.3212890625
2024-04-26T05:50:13.000Z,417.6638488769531
2024-04-26T05:51:16.000Z,417.3631591796875
2024-04-26T05:52:18.000Z,418.98736572265625
2024-04-26T05:53:20.000Z,420.9335632324219
2024-04-26T05:54:22.000Z,423.1352233886719
2024-04-26T05:55:24.000Z,424.59521484375
2024-04-26T05:56:26.000Z,422.87030029296875
2024-04-26T05:57:28.000Z,423.2916564941406
2024-04-26T05:58:31.000Z,423.7515563964844
2024-04-26T05:59:33.000Z,423.0185546875
2024-04-26T06:00:35.000Z,424.0600891113281
2024-04-26T06:01:37.000Z,422.5894775390625
2024-04-26T06:02:39.000Z,420.6830139160156
2024-04-26T06:03:41.000Z,420.13763427734375
2024-04-26T06:04:43.000Z,421.50531005859375
2024-04-26T06:05:46.000Z,421.4991760253906
2024-04-26T06:06:48.000Z,420.62353515625
2024-04-26T06:07:50.000Z,419.8138732910156
2024-04-26T06:08:52.000Z,420.9871826171875
2024-04-26T06:09:54.000Z,423.1880798339844
2024-04-26T06:10:56.000Z,423.4804992675781
2024-04-26T06:11:59.000Z,422.0108947753906
2024-04-26T06:13:01.000Z,420.9447021484375
2024-04-26T06:14:03.000Z,423.95941162109375
2024-04-26T06:15:05.000Z,425.3113098144531
2024-04-26T06:16:07.000Z,424.9705810546875
2024-04-26T06:17:09.000Z,424.08258056640625
2024-04-26T06:18:11.000Z,422.9974060058594
2024-04-26T06:19:13.000Z,421.87774658203125
2024-04-26T06:20:16.000Z,421.9883117675781
2024-04-26T06:21:18.000Z,421.8500671386719
2024-04-26T06:22:20.000Z,421.2012939453125
2024-04-26T06:23:22.000Z,421.154541015625
2024-04-26T06:24:24.000Z,421.31317138671875
2024-04-26T06:25:27.000Z,419.3132629394531
2024-04-26T06:26:29.000Z,419.7627868652344
2024-04-26T06:27:31.000Z,416.5118103027344
2024-04-26T06:28:33.000Z,418.90655517578125
2024-04-26T06:29:35.000Z,418.552734375
2024-04-26T06:30:37.000Z,417.180419921875
2024-04-26T06:31:40.000Z,417.057373046875
2024-04-26T06:32:42.000Z,417.9117431640625
2024-04-26T06:33:44.000Z,418.0149230957031
2024-04-26T06:34:46.000Z,418.1998291015625
2024-04-26T06:35:48.000Z,418.7142333984375
2024-04-26T06:36:50.000Z,420.9222106933594
2024-04-26T06:37:53.000Z,423.36883544921875
2024-04-26T06:38:55.000Z,422.3651123046875
2024-04-26T06:39:57.000Z,422.4468994140625
2024-04-26T06:40:59.000Z,422.48822021484375
2024-04-26T06:42:01.000Z,419.33746337890625
2024-04-26T06:43:03.000Z,420.1998291015625
2024-04-26T06:44:05.000Z,420.2655334472656
2024-04-26T06:45:08.000Z,419.60894775390625
2024-04-26T06:46:10.000Z,419.556396484375
2024-04-26T06:47:12.000Z,419.80413818359375
2024-04-26T06:48:14.000Z,419.6234130859375
2024-04-26T06:49:16.000Z,415.6216125488281
2024-04-26T06:50:18.000Z,415.4920959472656
2024-04-26T06:51:21.000Z,414.6930236816406
2024-04-26T06:52:23.000Z,413.583984375
2024-04-26T06:53:25.000Z,412.83966064453125
2024-04-26T06:54:27.000Z,411.02618408203125
2024-04-26T06:55:29.000Z,409.6284484863281
2024-04-26T06:56:31.000Z,409.71942138671875
2024-04-26T06:57:34.000Z,410.1899108886719
2024-04-26T06:58:36.000Z,410.8169860839844
2024-04-26T06:59:38.000Z,409.6335144042969
2024-04-26T07:00:40.000Z,410.7690734863281
2024-04-26T07:01:42.000Z,412.0045471191406
2024-04-26T07:02:44.000Z,413.2284240722656
2024-04-26T07:03:46.000Z,413.3370056152344
2024-04-26T07:04:49.000Z,413.28851318359375
2024-04-26T07:05:51.000Z,413.9083251953125
2024-04-26T07:06:53.000Z,414.5681457519531
2024-04-26T07:07:55.000Z,413.78369140625
2024-04-26T07:08:57.000Z,410.8810119628906
2024-04-26T07:09:59.000Z,408.2044982910156
2024-04-26T07:11:02.000Z,403.8521423339844
2024-04-26T07:12:04.000Z,405.03460693359375
2024-04-26T07:13:06.000Z,405.00750732421875
2024-04-26T07:14:08.000Z,403.817626953125
2024-04-26T07:15:10.000Z,403.8929748535156
2024-04-26T07:16:12.000Z,407.91290283203125
2024-04-26T07:17:14.000Z,404.74420166015625
2024-04-26T07:18:17.000Z,405.6664123535156
2024-04-26T07:19:19.000Z,405.9907531738281
2024-04-26T07:20:21.000Z,407.955810546875
2024-04-26T07:21:23.000Z,408.5727844238281
2024-04-26T07:22:25.000Z,406.7881164550781
2024-04-26T07:23:27.000Z,404.7330322265625
2024-04-26T07:24:29.000Z,401.708984375
2024-04-26T07:25:32.000Z,400.9625244140625
2024-04-26T07:26:34.000Z,399.22882080078125
2024-04-26T07:27:36.000Z,399.5746154785156
2024-04-26T07:28:38.000Z,401.05743408203125
2024-04-26T07:29:40.000Z,403.0343017578125
2024-04-26T07:30:42.000Z,405.0206604003906
2024-04-26T07:31:45.000Z,405.0200500488281
2024-04-26T07:32:47.000Z,406.26702880859375
2024-04-26T07:33:49.000Z,405.3719482421875
2024-04-26T07:34:51.000Z,404.90679931640625
2024-04-26T07:35:53.000Z,406.6728515625
2024-04-26T07:36:55.000Z,405.7599792480469
2024-04-26T07:37:58.000Z,404.40106201171875
2024-04-26T07:39:00.000Z,401.9281311035156
2024-04-26T07:40:02.000Z,401.5027770996094
2024-04-26T07:41:04.000Z,401.83282470703125
2024-04-26T07:42:06.000Z,403.5258483886719
2024-04-26T07:43:08.000Z,403.47625732421875
2024-04-26T07:44:11.000Z,406.0256652832031
2024-04-26T07:45:13.000Z,405.3827209472656
2024-04-26T07:46:15.000Z,406.74554443359375
2024-04-26T07:47:17.000Z,408.234375
2024-04-26T07:48:19.000Z,406.7131652832031
2024-04-26T07:49:21.000Z,405.2955017089844
2024-04-26T07:50:24.000Z,406.10687255859375
2024-04-26T07:51:26.000Z,405.4566345214844
2024-04-26T07:52:28.000Z,406.1648864746094
2024-04-26T07:53:30.000Z,403.492919921875
2024-04-26T07:54:32.000Z,404.56634521484375
2024-04-26T07:55:34.000Z,402.67938232421875
2024-04-26T07:56:37.000Z,402.1717224121094
2024-04-26T07:57:39.000Z,402.73358154296875
2024-04-26T07:58:41.000Z,408.4211730957031
2024-04-26T07:59:43.000Z,407.36553955078125
2024-04-26T08:00:45.000Z,407.3033752441406
2024-04-26T08:01:47.000Z,406.57183837890625
2024-04-26T08:02:49.000Z,408.9273376464844
2024-04-26T08:03:52.000Z,410.2429504394531
2024-04-26T08:04:54.000Z,408.6633605957031
2024-04-26T08:05:56.000Z,408.0870056152344
2024-04-26T08:06:58.000Z,407.5634765625
2024-04-26T08:08:00.000Z,408.5904846191406
2024-04-26T08:09:02.000Z,408.57220458984375
2024-04-26T08:10:04.000Z,408.8200988769531
2024-04-26T08:11:07.000Z,407.6854553222656
2024-04-26T08:12:09.000Z,407.1149597167969
2024-04-26T08:13:11.000Z,407.75286865234375
2024-04-26T08:14:13.000Z,405.59295654296875
2024-04-26T08:15:15.000Z,405.8657531738281
2024-04-26T08:16:17.000Z,406.26263427734375
2024-04-26T08:17:19.000Z,406.8352355957031
2024-04-26T08:18:22.000Z,406.41259765625
2024-04-26T08:19:24.000Z,407.9705810546875
2024-04-26T08:20:26.000Z,407.1415710449219
2024-04-26T08:21:28.000Z,407.90960693359375
2024-04-26T08:22:30.000Z,408.08953857421875
2024-04-26T08:23:32.000Z,406.16552734375
2024-04-26T08:24:35.000Z,405.88275146484375
2024-04-26T08:25:37.000Z,403.583984375
2024-04-26T08:26:39.000Z,403.7572937011719
2024-04-26T08:27:41.000Z,406.1896057128906
2024-04-26T08:28:43.000Z,407.1491394042969
2024-04-26T08:29:45.000Z,406.0081481933594
2024-04-26T08:30:47.000Z,407.8226318359375
2024-04-26T08:31:50.000Z,409.58526611328125
2024-04-26T08:32:52.000Z,407.4886474609375
2024-04-26T08:33:54.000Z,409.7629699707031
2024-04-26T08:34:56.000Z,411.2026672363281
2024-04-26T08:35:58.000Z,411.3978271484375
2024-04-26T08:37:01.000Z,410.1976623535156
2024-04-26T08:38:03.000Z,410.33587646484375
2024-04-26T08:39:05.000Z,412.2217712402344
2024-04-26T08:40:07.000Z,412.2900085449219
2024-04-26T08:41:09.000Z,411.1560363769531
2024-04-26T08:42:11.000Z,406.5932312011719
2024-04-26T08:43:13.000Z,404.9241027832031
2024-04-26T08:44:16.000Z,404.95513916015625
2024-04-26T08:45:18.000Z,406.04638671875
2024-04-26T08:46:20.000Z,406.6452941894531
2024-04-26T08:47:22.000Z,408.24444580078125
2024-04-26T08:48:24.000Z,410.6725158691406
2024-04-26T08:49:26.000Z,409.25531005859375
2024-04-26T08:50:29.000Z,408.60321044921875
2024-04-26T08:51:31.000Z,406.3111267089844
2024-04-26T08:52:33.000Z,406.5429992675781
2024-04-26T08:53:35.000Z,405.9154052734375
2024-04-26T08:54:37.000Z,408.1636657714844
2024-04-26T08:55:39.000Z,406.5748291015625
2024-04-26T08:56:42.000Z,406.7975769042969
2024-04-26T08:57:44.000Z,408.6111145019531
2024-04-26T08:58:46.000Z,410.0467834472656
2024-04-26T08:59:48.000Z,410.128173828125
2024-04-26T09:00:50.000Z,410.0314025878906
2024-04-26T09:01:52.000Z,409.0954284667969
2024-04-26T09:02:55.000Z,406.6877136230469
2024-04-26T09:03:57.000Z,406.31414794921875
2024-04-26T09:04:59.000Z,409.25531005859375
2024-04-26T09:06:01.000Z,407.63818359375
2024-04-26T09:07:03.000Z,406.81854248046875
2024-04-26T09:08:05.000Z,406.268310546875
2024-04-26T09:09:08.000Z,406.0813293457031
2024-04-26T09:10:10.000Z,406.3563232421875
2024-04-26T09:11:12.000Z,404.6559143066406
2024-04-26T09:12:14.000Z,403.01007080078125
2024-04-26T09:13:16.000Z,402.74822998046875
2024-04-26T09:14:18.000Z,400.8938903808594
2024-04-26T09:15:20.000Z,403.9473571777344
2024-04-26T09:16:23.000Z,405.2645568847656
2024-04-26T09:17:25.000Z,404.0030822753906
2024-04-26T09:18:27.000Z,406.4314270019531
2024-04-26T09:19:29.000Z,405.2242736816406
2024-04-26T09:20:31.000Z,405.9325866699219
2024-04-26T09:21:33.000Z,400.7956237792969
2024-04-26T09:22:36.000Z,401.80352783203125
2024-04-26T09:23:38.000Z,403.2946472167969
2024-04-26T09:24:40.000Z,405.4589538574219
2024-04-26T09:25:42.000Z,404.6847229003906
2024-04-26T09:26:44.000Z,404.68505859375
2024-04-26T09:27:46.000Z,402.0204772949219
2024-04-26T09:28:48.000Z,399.7833557128906
2024-04-26T09:29:50.000Z,398.8752136230469
2024-04-26T09:30:53.000Z,400.3244323730469
2024-04-26T09:31:55.000Z,399.40185546875
2024-04-26T09:32:57.000Z,398.54425048828125
2024-04-26T09:33:59.000Z,405.2181701660156
2024-04-26T09:35:01.000Z,403.2144470214844
2024-04-26T09:36:03.000Z,403.6090087890625
2024-04-26T09:37:05.000Z,411.936767578125